sensor_id;sensor_type;location;lat;lon;timestamp;pressure;altitude;pressure_sealevel;temperature;humidity
40502;BME280;29631;49.168;9.848;2023-04-08T00:02:10;96822.31;;;14.50;78.01
40502;BME280;29631;49.168;9.848;2023-04-08T00:04:36;96821.94;;;14.46;77.25
40502;BME280;29631;49.168;9.848;2023-04-08T00:07:02;96851.66;;;14.66;77.84
40502;BME280;29631;49.168;9.848;2023-04-08T00:09:27;96860.88;;;14.63;77.75
40502;BME280;29631;49.168;9.848;2023-04-08T00:11:53;96833.72;;;14.50;78.02
40502;BME280;29631;49.168;9.848;2023-04-08T00:14:19;96858.91;;;14.59;77.43
40502;BME280;29631;49.168;9.848;2023-04-08T00:16:44;96851.88;;;14.64;78.22
40502;BME280;29631;49.168;9.848;2023-04-08T00:19:10;96843.22;;;14.57;78.50
40502;BME280;29631;49.168;9.848;2023-04-08T00:21:36;96813.84;;;14.41;77.98
40502;BME280;29631;49.168;9.848;2023-04-08T00:24:02;96823.31;;;14.49;77.40
40502;BME280;29631;49.168;9.848;2023-04-08T00:26:28;96854.09;;;14.67;78.61
40502;BME280;29631;49.168;9.848;2023-04-08T00:28:54;96849.81;;;14.66;77.97
40502;BME280;29631;49.168;9.848;2023-04-08T00:31:20;96830.63;;;14.53;77.65
40502;BME280;29631;49.168;9.848;2023-04-08T00:33:46;96859.28;;;14.62;78.41
40502;BME280;29631;49.168;9.848;2023-04-08T00:36:11;96838.94;;;14.56;77.92
40502;BME280;29631;49.168;9.848;2023-04-08T00:38:37;96858.81;;;14.65;78.87
40502;BME280;29631;49.168;9.848;2023-04-08T00:41:03;96802.59;;;14.28;78.35
40502;BME280;29631;49.168;9.848;2023-04-08T00:43:29;96840.56;;;14.57;78.37
40502;BME280;29631;49.168;9.848;2023-04-08T00:45:54;96857.53;;;14.68;78.78
40502;BME280;29631;49.168;9.848;2023-04-08T00:48:20;96828.28;;;14.45;78.72
40502;BME280;29631;49.168;9.848;2023-04-08T00:50:46;96857.06;;;14.59;78.91
40502;BME280;29631;49.168;9.848;2023-04-08T00:53:18;96835.69;;;14.54;79.26
40502;BME280;29631;49.168;9.848;2023-04-08T00:55:44;96859.41;;;14.67;78.88
40502;BME280;29631;49.168;9.848;2023-04-08T00:58:11;96863.22;;;14.71;78.64
40502;BME280;29631;49.168;9.848;2023-04-08T01:00:50;96843.34;;;14.62;79.27
40502;BME280;29631;49.168;9.848;2023-04-08T01:03:55;96847.28;;;14.71;79.55
40502;BME280;29631;49.168;9.848;2023-04-08T01:06:39;96834.56;;;14.62;79.40
40502;BME280;29631;49.168;9.848;2023-04-08T01:09:11;96834.34;;;14.63;79.56
40502;BME280;29631;49.168;9.848;2023-04-08T01:11:42;96833.16;;;14.59;79.15
40502;BME280;29631;49.168;9.848;2023-04-08T01:14:08;96831.53;;;14.58;79.72
40502;BME280;29631;49.168;9.848;2023-04-08T01:16:38;96822.72;;;14.47;79.40
40502;BME280;29631;49.168;9.848;2023-04-08T01:19:07;96840.75;;;14.56;79.77
40502;BME280;29631;49.168;9.848;2023-04-08T01:21:36;96841.38;;;14.58;79.42
40502;BME280;29631;49.168;9.848;2023-04-08T01:24:25;96839.38;;;14.53;79.26
40502;BME280;29631;49.168;9.848;2023-04-08T01:26:53;96821.09;;;14.46;79.84
40502;BME280;29631;49.168;9.848;2023-04-08T01:29:21;96841.91;;;14.49;79.36
40502;BME280;29631;49.168;9.848;2023-04-08T01:31:47;96832.59;;;14.57;79.46
40502;BME280;29631;49.168;9.848;2023-04-08T01:34:14;96828.88;;;14.58;79.58
40502;BME280;29631;49.168;9.848;2023-04-08T01:36:43;96827.72;;;14.54;79.38
40502;BME280;29631;49.168;9.848;2023-04-08T01:39:10;96863.69;;;14.68;79.53
40502;BME280;29631;49.168;9.848;2023-04-08T01:41:36;96855.72;;;14.68;79.81
40502;BME280;29631;49.168;9.848;2023-04-08T01:44:04;96849.81;;;14.66;80.28
40502;BME280;29631;49.168;9.848;2023-04-08T01:46:30;96825.25;;;14.42;79.53
40502;BME280;29631;49.168;9.848;2023-04-08T01:48:58;96837.91;;;14.57;79.92
40502;BME280;29631;49.168;9.848;2023-04-08T01:51:24;96847.03;;;14.61;79.60
40502;BME280;29631;49.168;9.848;2023-04-08T01:53:51;96848.66;;;14.62;80.09
40502;BME280;29631;49.168;9.848;2023-04-08T01:56:20;96808.84;;;14.33;79.59
40502;BME280;29631;49.168;9.848;2023-04-08T01:58:51;96834.53;;;14.51;80.65
40502;BME280;29631;49.168;9.848;2023-04-08T02:01:21;96837.31;;;14.55;80.10
40502;BME280;29631;49.168;9.848;2023-04-08T02:03:48;96839.38;;;14.53;80.46
40502;BME280;29631;49.168;9.848;2023-04-08T02:06:16;96833.34;;;14.47;80.10
40502;BME280;29631;49.168;9.848;2023-04-08T02:08:42;96834.16;;;14.47;80.23
40502;BME280;29631;49.168;9.848;2023-04-08T02:11:08;96844.09;;;14.51;80.44
40502;BME280;29631;49.168;9.848;2023-04-08T02:13:34;96824.66;;;14.40;80.64
40502;BME280;29631;49.168;9.848;2023-04-08T02:16:09;96835.63;;;14.43;80.63
40502;BME280;29631;49.168;9.848;2023-04-08T02:18:43;96845.44;;;14.43;80.20
40502;BME280;29631;49.168;9.848;2023-04-08T02:21:12;96861.97;;;14.45;80.88
40502;BME280;29631;49.168;9.848;2023-04-08T02:23:39;96841.78;;;14.44;81.01
40502;BME280;29631;49.168;9.848;2023-04-08T02:26:13;96844.50;;;14.37;80.47
40502;BME280;29631;49.168;9.848;2023-04-08T02:28:40;96835.50;;;14.38;80.53
40502;BME280;29631;49.168;9.848;2023-04-08T02:31:10;96847.63;;;14.46;80.80
40502;BME280;29631;49.168;9.848;2023-04-08T02:33:39;96792.16;;;14.15;80.45
40502;BME280;29631;49.168;9.848;2023-04-08T02:36:07;96839.56;;;14.41;80.63
40502;BME280;29631;49.168;9.848;2023-04-08T02:38:34;96850.88;;;14.48;80.61
40502;BME280;29631;49.168;9.848;2023-04-08T02:40:59;96825.91;;;14.37;80.93
40502;BME280;29631;49.168;9.848;2023-04-08T02:43:25;96865.91;;;14.53;81.22
40502;BME280;29631;49.168;9.848;2023-04-08T02:45:57;96842.34;;;14.46;80.63
40502;BME280;29631;49.168;9.848;2023-04-08T02:48:25;96789.72;;;13.95;80.62
40502;BME280;29631;49.168;9.848;2023-04-08T02:50:50;96862.53;;;14.47;81.34
40502;BME280;29631;49.168;9.848;2023-04-08T02:53:16;96854.44;;;14.42;81.17
40502;BME280;29631;49.168;9.848;2023-04-08T02:55:42;96840.19;;;14.25;80.92
40502;BME280;29631;49.168;9.848;2023-04-08T02:58:07;96838.91;;;14.27;81.00
40502;BME280;29631;49.168;9.848;2023-04-08T03:00:33;96880.22;;;14.35;81.09
40502;BME280;29631;49.168;9.848;2023-04-08T03:02:59;96865.06;;;14.24;81.64
40502;BME280;29631;49.168;9.848;2023-04-08T03:05:25;96789.28;;;13.80;81.68
40502;BME280;29631;49.168;9.848;2023-04-08T03:07:51;96843.56;;;14.14;81.43
40502;BME280;29631;49.168;9.848;2023-04-08T03:10:17;96845.63;;;14.12;81.62
40502;BME280;29631;49.168;9.848;2023-04-08T03:12:43;96846.50;;;14.06;81.42
40502;BME280;29631;49.168;9.848;2023-04-08T03:15:09;96861.53;;;14.12;81.73
40502;BME280;29631;49.168;9.848;2023-04-08T03:17:34;96848.41;;;13.99;82.21
40502;BME280;29631;49.168;9.848;2023-04-08T03:20:01;96864.34;;;14.17;81.43
40502;BME280;29631;49.168;9.848;2023-04-08T03:22:29;96874.47;;;14.20;81.55
40502;BME280;29631;49.168;9.848;2023-04-08T03:24:55;96852.09;;;14.16;81.67
40502;BME280;29631;49.168;9.848;2023-04-08T03:27:20;96861.22;;;14.20;81.77
40502;BME280;29631;49.168;9.848;2023-04-08T03:29:46;96834.69;;;14.02;81.46
40502;BME280;29631;49.168;9.848;2023-04-08T03:32:12;96860.38;;;14.26;81.69
40502;BME280;29631;49.168;9.848;2023-04-08T03:34:38;96843.34;;;14.15;80.95
40502;BME280;29631;49.168;9.848;2023-04-08T03:37:03;96847.97;;;14.20;81.97
40502;BME280;29631;49.168;9.848;2023-04-08T03:39:29;96834.44;;;14.10;80.94
40502;BME280;29631;49.168;9.848;2023-04-08T03:41:55;96844.16;;;14.16;81.05
40502;BME280;29631;49.168;9.848;2023-04-08T03:44:21;96835.53;;;14.02;81.44
40502;BME280;29631;49.168;9.848;2023-04-08T03:46:47;96864.75;;;14.14;81.98
40502;BME280;29631;49.168;9.848;2023-04-08T03:49:13;96859.47;;;14.14;81.87
40502;BME280;29631;49.168;9.848;2023-04-08T03:51:38;96861.94;;;14.09;81.56
40502;BME280;29631;49.168;9.848;2023-04-08T03:54:04;96808.56;;;13.70;82.00
40502;BME280;29631;49.168;9.848;2023-04-08T03:56:30;96853.84;;;14.04;81.95
40502;BME280;29631;49.168;9.848;2023-04-08T03:58:56;96865.41;;;14.09;81.72
40502;BME280;29631;49.168;9.848;2023-04-08T04:01:22;96880.25;;;14.17;82.18
40502;BME280;29631;49.168;9.848;2023-04-08T04:03:47;96863.97;;;14.13;81.93
40502;BME280;29631;49.168;9.848;2023-04-08T04:06:13;96848.91;;;14.07;81.72
40502;BME280;29631;49.168;9.848;2023-04-08T04:08:39;96874.47;;;14.20;81.96
40502;BME280;29631;49.168;9.848;2023-04-08T04:11:04;96885.91;;;14.20;82.03
40502;BME280;29631;49.168;9.848;2023-04-08T04:13:30;96862.03;;;14.02;81.92
40502;BME280;29631;49.168;9.848;2023-04-08T04:15:56;96883.50;;;14.19;81.65
40502;BME280;29631;49.168;9.848;2023-04-08T04:18:22;96885.91;;;14.20;81.28
40502;BME280;29631;49.168;9.848;2023-04-08T04:20:47;96870.66;;;14.16;82.08
40502;BME280;29631;49.168;9.848;2023-04-08T04:23:13;96876.63;;;14.11;81.82
40502;BME280;29631;49.168;9.848;2023-04-08T04:25:42;96863.28;;;14.00;81.78
40502;BME280;29631;49.168;9.848;2023-04-08T04:28:08;96880.66;;;14.14;81.97
40502;BME280;29631;49.168;9.848;2023-04-08T04:30:38;96862.03;;;14.02;81.95
40502;BME280;29631;49.168;9.848;2023-04-08T04:33:05;96889.22;;;14.16;81.75
40502;BME280;29631;49.168;9.848;2023-04-08T04:35:32;96891.66;;;14.17;81.67
40502;BME280;29631;49.168;9.848;2023-04-08T04:37:58;96878.69;;;14.09;80.96
40502;BME280;29631;49.168;9.848;2023-04-08T04:40:23;96879.34;;;14.05;81.96
40502;BME280;29631;49.168;9.848;2023-04-08T04:42:49;96897.06;;;14.04;82.31
40502;BME280;29631;49.168;9.848;2023-04-08T04:45:15;96880.41;;;13.97;82.11
40502;BME280;29631;49.168;9.848;2023-04-08T04:47:41;96903.47;;;13.97;81.97
40502;BME280;29631;49.168;9.848;2023-04-08T04:50:07;96884.16;;;13.90;81.85
40502;BME280;29631;49.168;9.848;2023-04-08T04:52:35;96888.88;;;13.88;81.68
40502;BME280;29631;49.168;9.848;2023-04-08T04:55:01;96828.31;;;13.49;82.32
40502;BME280;29631;49.168;9.848;2023-04-08T04:57:27;96874.16;;;13.74;82.30
40502;BME280;29631;49.168;9.848;2023-04-08T04:59:52;96850.13;;;13.69;82.45
40502;BME280;29631;49.168;9.848;2023-04-08T05:02:18;96916.72;;;13.97;81.71
40502;BME280;29631;49.168;9.848;2023-04-08T05:04:44;96880.53;;;13.84;81.75
40502;BME280;29631;49.168;9.848;2023-04-08T05:07:10;96914.22;;;14.02;81.64
40502;BME280;29631;49.168;9.848;2023-04-08T05:09:35;96876.50;;;13.82;81.54
40502;BME280;29631;49.168;9.848;2023-04-08T05:12:01;96898.81;;;13.92;81.56
40502;BME280;29631;49.168;9.848;2023-04-08T05:14:30;96922.31;;;14.07;81.87
40502;BME280;29631;49.168;9.848;2023-04-08T05:16:55;96914.59;;;14.05;81.67
40502;BME280;29631;49.168;9.848;2023-04-08T05:19:22;96933.31;;;14.10;81.61
40502;BME280;29631;49.168;9.848;2023-04-08T05:21:47;96906.13;;;13.97;81.68
40502;BME280;29631;49.168;9.848;2023-04-08T05:24:13;96921.28;;;14.08;81.08
40502;BME280;29631;49.168;9.848;2023-04-08T05:26:39;96937.00;;;14.09;81.21
40502;BME280;29631;49.168;9.848;2023-04-08T05:29:05;96917.91;;;14.01;81.42
40502;BME280;29631;49.168;9.848;2023-04-08T05:31:30;96930.88;;;14.09;81.52
40502;BME280;29631;49.168;9.848;2023-04-08T05:33:56;96893.16;;;13.89;81.21
40502;BME280;29631;49.168;9.848;2023-04-08T05:36:22;96925.84;;;14.01;81.76
40502;BME280;29631;49.168;9.848;2023-04-08T05:38:48;96914.34;;;13.89;82.04
40502;BME280;29631;49.168;9.848;2023-04-08T05:41:13;96909.56;;;13.97;81.36
40502;BME280;29631;49.168;9.848;2023-04-08T05:43:40;96903.75;;;13.89;81.66
40502;BME280;29631;49.168;9.848;2023-04-08T05:46:09;96932.91;;;14.07;81.39
40502;BME280;29631;49.168;9.848;2023-04-08T05:48:36;96949.84;;;14.12;82.07
40502;BME280;29631;49.168;9.848;2023-04-08T05:51:02;96957.56;;;14.14;81.58
40502;BME280;29631;49.168;9.848;2023-04-08T05:53:28;96939.06;;;14.07;81.74
40502;BME280;29631;49.168;9.848;2023-04-08T05:55:53;96923.56;;;14.04;81.44
40502;BME280;29631;49.168;9.848;2023-04-08T05:58:19;96970.41;;;14.17;81.41
40502;BME280;29631;49.168;9.848;2023-04-08T06:00:45;96943.13;;;14.10;81.32
40502;BME280;29631;49.168;9.848;2023-04-08T06:03:11;96943.53;;;14.07;81.38
40502;BME280;29631;49.168;9.848;2023-04-08T06:05:36;96958.63;;;14.13;81.65
40502;BME280;29631;49.168;9.848;2023-04-08T06:08:02;96934.84;;;14.00;81.67
40502;BME280;29631;49.168;9.848;2023-04-08T06:10:28;96947.66;;;14.03;81.98
40502;BME280;29631;49.168;9.848;2023-04-08T06:12:53;96945.47;;;14.00;81.55
40502;BME280;29631;49.168;9.848;2023-04-08T06:15:19;96922.53;;;13.87;81.20
40502;BME280;29631;49.168;9.848;2023-04-08T06:17:45;96946.47;;;13.99;81.32
40502;BME280;29631;49.168;9.848;2023-04-08T06:20:11;96986.09;;;14.18;81.55
40502;BME280;29631;49.168;9.848;2023-04-08T06:22:37;96888.09;;;13.63;81.76
40502;BME280;29631;49.168;9.848;2023-04-08T06:25:03;96983.81;;;14.22;81.44
40502;BME280;29631;49.168;9.848;2023-04-08T06:27:29;96953.56;;;14.05;81.68
40502;BME280;29631;49.168;9.848;2023-04-08T06:29:55;96946.47;;;13.99;81.81
40502;BME280;29631;49.168;9.848;2023-04-08T06:32:23;96958.41;;;14.08;81.96
40502;BME280;29631;49.168;9.848;2023-04-08T06:34:49;96937.94;;;13.97;81.61
40502;BME280;29631;49.168;9.848;2023-04-08T06:37:15;96970.25;;;14.12;81.31
40502;BME280;29631;49.168;9.848;2023-04-08T06:39:41;96974.88;;;14.16;81.29
40502;BME280;29631;49.168;9.848;2023-04-08T06:42:06;96989.56;;;14.19;81.24
40502;BME280;29631;49.168;9.848;2023-04-08T06:44:32;96988.97;;;14.17;81.82
40502;BME280;29631;49.168;9.848;2023-04-08T06:46:58;96971.28;;;14.11;81.41
40502;BME280;29631;49.168;9.848;2023-04-08T06:49:23;96966.38;;;14.08;81.94
40502;BME280;29631;49.168;9.848;2023-04-08T06:51:49;96992.63;;;14.16;81.33
40502;BME280;29631;49.168;9.848;2023-04-08T06:54:15;96955.38;;;14.04;81.57
40502;BME280;29631;49.168;9.848;2023-04-08T06:56:41;96959.88;;;14.04;81.83
40502;BME280;29631;49.168;9.848;2023-04-08T06:59:06;96987.94;;;14.18;81.89
40502;BME280;29631;49.168;9.848;2023-04-08T07:01:32;96968.44;;;14.06;81.59
40502;BME280;29631;49.168;9.848;2023-04-08T07:03:58;96983.91;;;14.09;81.42
40502;BME280;29631;49.168;9.848;2023-04-08T07:06:24;96981.09;;;14.04;81.42
40502;BME280;29631;49.168;9.848;2023-04-08T07:08:50;96989.19;;;14.09;80.99
40502;BME280;29631;49.168;9.848;2023-04-08T07:11:15;96972.63;;;13.95;81.41
40502;BME280;29631;49.168;9.848;2023-04-08T07:13:41;96996.19;;;14.03;81.30
40502;BME280;29631;49.168;9.848;2023-04-08T07:16:07;97001.13;;;14.00;80.87
40502;BME280;29631;49.168;9.848;2023-04-08T07:18:33;97008.03;;;14.01;81.25
40502;BME280;29631;49.168;9.848;2023-04-08T07:20:59;96997.81;;;14.04;81.38
40502;BME280;29631;49.168;9.848;2023-04-08T07:23:25;97001.69;;;14.02;81.42
40502;BME280;29631;49.168;9.848;2023-04-08T07:25:52;96970.66;;;13.84;81.17
40502;BME280;29631;49.168;9.848;2023-04-08T07:28:19;96998.25;;;14.01;81.14
40502;BME280;29631;49.168;9.848;2023-04-08T07:30:45;97007.22;;;14.00;81.08
40502;BME280;29631;49.168;9.848;2023-04-08T07:33:11;97009.25;;;14.05;80.78
40502;BME280;29631;49.168;9.848;2023-04-08T07:35:37;97021.66;;;14.11;81.12
40502;BME280;29631;49.168;9.848;2023-04-08T07:38:03;96978.72;;;13.96;81.20
40502;BME280;29631;49.168;9.848;2023-04-08T07:40:29;97015.47;;;14.17;81.15
40502;BME280;29631;49.168;9.848;2023-04-08T07:42:55;97012.81;;;14.17;80.95
40502;BME280;29631;49.168;9.848;2023-04-08T07:45:21;96991.47;;;14.05;80.69
40502;BME280;29631;49.168;9.848;2023-04-08T07:47:46;97002.22;;;14.17;80.01
40502;BME280;29631;49.168;9.848;2023-04-08T07:50:12;97037.19;;;14.32;80.46
40502;BME280;29631;49.168;9.848;2023-04-08T07:52:38;96986.97;;;14.12;79.43
40502;BME280;29631;49.168;9.848;2023-04-08T07:55:04;97011.94;;;14.23;79.66
40502;BME280;29631;49.168;9.848;2023-04-08T07:57:31;97014.31;;;14.31;79.60
40502;BME280;29631;49.168;9.848;2023-04-08T07:59:56;97022.00;;;14.39;79.37
40502;BME280;29631;49.168;9.848;2023-04-08T08:02:22;97027.59;;;14.49;79.44
40502;BME280;29631;49.168;9.848;2023-04-08T08:04:48;97024.34;;;14.47;79.76
40502;BME280;29631;49.168;9.848;2023-04-08T08:07:14;97019.13;;;14.40;79.12
40502;BME280;29631;49.168;9.848;2023-04-08T08:09:40;97041.03;;;14.53;79.29
40502;BME280;29631;49.168;9.848;2023-04-08T08:12:05;97005.91;;;14.34;78.13
40502;BME280;29631;49.168;9.848;2023-04-08T08:14:31;97045.91;;;14.56;78.95
40502;BME280;29631;49.168;9.848;2023-04-08T08:16:57;97049.69;;;14.67;78.52
40502;BME280;29631;49.168;9.848;2023-04-08T08:19:23;97049.88;;;14.65;78.43
40502;BME280;29631;49.168;9.848;2023-04-08T08:21:48;97059.78;;;14.76;77.94
40502;BME280;29631;49.168;9.848;2023-04-08T08:24:15;97044.88;;;14.75;77.96
40502;BME280;29631;49.168;9.848;2023-04-08T08:26:41;97051.72;;;14.83;78.12
40502;BME280;29631;49.168;9.848;2023-04-08T08:29:09;97039.56;;;14.75;77.22
40502;BME280;29631;49.168;9.848;2023-04-08T08:31:35;97007.88;;;14.62;78.08
40502;BME280;29631;49.168;9.848;2023-04-08T08:34:01;97067.88;;;14.99;77.39
40502;BME280;29631;49.168;9.848;2023-04-08T08:36:27;97062.19;;;14.96;77.64
40502;BME280;29631;49.168;9.848;2023-04-08T08:38:53;97070.31;;;15.01;77.88
40502;BME280;29631;49.168;9.848;2023-04-08T08:41:22;97075.84;;;14.99;77.71
40502;BME280;29631;49.168;9.848;2023-04-08T08:43:48;97040.22;;;14.89;76.85
40502;BME280;29631;49.168;9.848;2023-04-08T08:46:16;97071.41;;;15.11;77.10
40502;BME280;29631;49.168;9.848;2023-04-08T08:48:44;97047.47;;;15.00;77.50
40502;BME280;29631;49.168;9.848;2023-04-08T08:51:11;97071.78;;;15.15;77.35
40502;BME280;29631;49.168;9.848;2023-04-08T08:53:38;97058.78;;;15.07;76.66
40502;BME280;29631;49.168;9.848;2023-04-08T08:56:05;97052.03;;;15.11;76.57
40502;BME280;29631;49.168;9.848;2023-04-08T08:58:33;97055.28;;;15.13;76.55
40502;BME280;29631;49.168;9.848;2023-04-08T09:00:59;97048.41;;;15.05;76.66
40502;BME280;29631;49.168;9.848;2023-04-08T09:03:26;97076.59;;;15.24;76.88
40502;BME280;29631;49.168;9.848;2023-04-08T09:05:57;97066.78;;;15.25;76.20
40502;BME280;29631;49.168;9.848;2023-04-08T09:08:30;97082.63;;;15.31;77.02
40502;BME280;29631;49.168;9.848;2023-04-08T09:11:12;97075.41;;;15.20;76.65
40502;BME280;29631;49.168;9.848;2023-04-08T09:13:38;97083.97;;;15.22;76.36
40502;BME280;29631;49.168;9.848;2023-04-08T09:16:07;97083.97;;;15.22;76.83
40502;BME280;29631;49.168;9.848;2023-04-08T09:18:35;97011.41;;;14.74;76.44
40502;BME280;29631;49.168;9.848;2023-04-08T09:21:03;97061.63;;;15.12;77.01
40502;BME280;29631;49.168;9.848;2023-04-08T09:23:47;97098.81;;;15.29;76.79
40502;BME280;29631;49.168;9.848;2023-04-08T09:28:42;97069.72;;;15.17;75.97
40502;BME280;29631;49.168;9.848;2023-04-08T09:31:22;97098.69;;;15.25;76.23
40502;BME280;29631;49.168;9.848;2023-04-08T09:33:49;97089.28;;;15.22;76.36
40502;BME280;29631;49.168;9.848;2023-04-08T09:36:16;97090.91;;;15.23;76.84
40502;BME280;29631;49.168;9.848;2023-04-08T09:38:42;97092.53;;;15.24;77.00
40502;BME280;29631;49.168;9.848;2023-04-08T09:41:13;97076.94;;;15.10;76.97
40502;BME280;29631;49.168;9.848;2023-04-08T09:43:47;97097.25;;;15.22;76.14
40502;BME280;29631;49.168;9.848;2023-04-08T09:46:16;97109.50;;;15.23;76.83
40502;BME280;29631;49.168;9.848;2023-04-08T09:49:54;97102.34;;;15.24;76.49
40502;BME280;29631;49.168;9.848;2023-04-08T09:52:12;97109.06;;;15.26;76.36
40502;BME280;29631;49.168;9.848;2023-04-08T09:54:58;97103.16;;;15.24;76.52
40502;BME280;29631;49.168;9.848;2023-04-08T09:57:57;97091.19;;;15.15;76.49
40502;BME280;29631;49.168;9.848;2023-04-08T10:00:41;97109.50;;;15.23;76.29
40502;BME280;29631;49.168;9.848;2023-04-08T10:03:29;97114.97;;;15.28;76.42
40502;BME280;29631;49.168;9.848;2023-04-08T10:05:57;97119.09;;;15.24;76.66
40502;BME280;29631;49.168;9.848;2023-04-08T10:08:26;97102.38;;;15.17;76.03
40502;BME280;29631;49.168;9.848;2023-04-08T10:10:53;97109.78;;;15.15;75.83
40502;BME280;29631;49.168;9.848;2023-04-08T10:13:20;97115.09;;;15.15;76.50
40502;BME280;29631;49.168;9.848;2023-04-08T10:15:47;97084.97;;;15.03;76.12
40502;BME280;29631;49.168;9.848;2023-04-08T10:23:16;97105.50;;;15.14;75.84
40502;BME280;29631;49.168;9.848;2023-04-08T10:25:43;97097.22;;;15.04;76.11
40502;BME280;29631;49.168;9.848;2023-04-08T10:30:52;97097.69;;;15.01;75.98
40502;BME280;29631;49.168;9.848;2023-04-08T10:33:23;97064.34;;;14.87;75.91
40502;BME280;29631;49.168;9.848;2023-04-08T10:36:00;97081.53;;;15.03;76.35
40502;BME280;29631;49.168;9.848;2023-04-08T10:38:27;97090.28;;;15.03;76.25
40502;BME280;29631;49.168;9.848;2023-04-08T10:40:53;97082.19;;;14.98;76.49
40502;BME280;29631;49.168;9.848;2023-04-08T10:43:19;97099.97;;;15.16;76.41
40502;BME280;29631;49.168;9.848;2023-04-08T10:45:45;97102.47;;;15.11;76.00
40502;BME280;29631;49.168;9.848;2023-04-08T10:48:21;97101.50;;;15.05;75.79
40502;BME280;29631;49.168;9.848;2023-04-08T10:51:04;97103.00;;;15.01;75.92
40502;BME280;29631;49.168;9.848;2023-04-08T10:53:32;97100.47;;;15.06;76.15
40502;BME280;29631;49.168;9.848;2023-04-08T10:56:10;97097.22;;;15.04;75.89
40502;BME280;29631;49.168;9.848;2023-04-08T10:58:52;97113.47;;;15.14;76.42
40502;BME280;29631;49.168;9.848;2023-04-08T11:01:21;97096.19;;;15.05;75.53
40502;BME280;29631;49.168;9.848;2023-04-08T11:03:47;97084.69;;;14.93;75.18
40502;BME280;29631;49.168;9.848;2023-04-08T11:06:13;97116.69;;;15.16;75.46
40502;BME280;29631;49.168;9.848;2023-04-08T11:08:39;97135.88;;;15.18;75.77
40502;BME280;29631;49.168;9.848;2023-04-08T11:11:06;97102.84;;;15.14;76.25
40502;BME280;29631;49.168;9.848;2023-04-08T11:13:39;97109.56;;;15.17;75.21
40502;BME280;29631;49.168;9.848;2023-04-08T11:16:06;97097.97;;;15.11;75.60
40502;BME280;29631;49.168;9.848;2023-04-08T11:18:37;97089.63;;;15.08;75.78
40502;BME280;29631;49.168;9.848;2023-04-08T11:21:10;97055.91;;;14.90;75.76
40502;BME280;29631;49.168;9.848;2023-04-08T11:23:36;97082.50;;;15.08;75.67
40502;BME280;29631;49.168;9.848;2023-04-08T11:26:03;97105.22;;;15.22;75.27
40502;BME280;29631;49.168;9.848;2023-04-08T11:28:29;97104.34;;;15.28;75.08
40502;BME280;29631;49.168;9.848;2023-04-08T11:30:56;97104.34;;;15.28;75.83
40502;BME280;29631;49.168;9.848;2023-04-08T11:33:24;97097.31;;;15.33;75.53
40502;BME280;29631;49.168;9.848;2023-04-08T11:35:51;97088.78;;;15.31;75.75
40502;BME280;29631;49.168;9.848;2023-04-08T11:38:23;97110.25;;;15.48;75.62
40502;BME280;29631;49.168;9.848;2023-04-08T11:40:57;97105.34;;;15.45;75.12
40502;BME280;29631;49.168;9.848;2023-04-08T11:43:23;97104.03;;;15.54;75.00
40502;BME280;29631;49.168;9.848;2023-04-08T11:45:50;97089.41;;;15.45;75.40
40502;BME280;29631;49.168;9.848;2023-04-08T11:48:16;97099.00;;;15.46;75.51
40502;BME280;29631;49.168;9.848;2023-04-08T11:50:43;97110.13;;;15.54;74.77
40502;BME280;29631;49.168;9.848;2023-04-08T11:53:24;97102.41;;;15.53;74.71
40502;BME280;29631;49.168;9.848;2023-04-08T11:55:50;97083.19;;;15.51;74.66
40502;BME280;29631;49.168;9.848;2023-04-08T11:58:16;97082.53;;;15.55;74.70
40502;BME280;29631;49.168;9.848;2023-04-08T12:00:43;97073.59;;;15.50;75.07
40502;BME280;29631;49.168;9.848;2023-04-08T12:03:09;97102.59;;;15.69;74.70
40502;BME280;29631;49.168;9.848;2023-04-08T12:05:35;97096.53;;;15.62;74.44
40502;BME280;29631;49.168;9.848;2023-04-08T12:08:01;97094.31;;;15.59;74.88
40502;BME280;29631;49.168;9.848;2023-04-08T12:10:27;97071.41;;;15.47;75.07
40502;BME280;29631;49.168;9.848;2023-04-08T12:12:53;97074.91;;;15.59;74.46
40502;BME280;29631;49.168;9.848;2023-04-08T12:15:19;97087.34;;;15.76;75.12
40502;BME280;29631;49.168;9.848;2023-04-08T12:17:44;97065.00;;;15.66;75.22
40502;BME280;29631;49.168;9.848;2023-04-08T12:20:11;97080.06;;;15.72;75.40
40502;BME280;29631;49.168;9.848;2023-04-08T12:22:38;97086.88;;;15.79;74.88
40502;BME280;29631;49.168;9.848;2023-04-08T12:25:04;97103.66;;;15.80;75.19
40502;BME280;29631;49.168;9.848;2023-04-08T12:27:31;97086.28;;;15.77;74.77
40502;BME280;29631;49.168;9.848;2023-04-08T12:30:01;97074.75;;;15.72;74.52
40502;BME280;29631;49.168;9.848;2023-04-08T12:32:28;97108.88;;;15.86;75.09
40502;BME280;29631;49.168;9.848;2023-04-08T12:34:53;97013.13;;;15.34;75.45
40502;BME280;29631;49.168;9.848;2023-04-08T12:37:20;97060.25;;;15.68;74.94
40502;BME280;29631;49.168;9.848;2023-04-08T12:39:46;97073.00;;;15.77;74.89
40502;BME280;29631;49.168;9.848;2023-04-08T12:42:12;97107.88;;;15.98;75.25
40502;BME280;29631;49.168;9.848;2023-04-08T12:44:38;97086.34;;;15.89;75.41
40502;BME280;29631;49.168;9.848;2023-04-08T12:47:04;97077.88;;;15.80;75.08
40502;BME280;29631;49.168;9.848;2023-04-08T12:49:30;97112.19;;;15.99;75.20
40502;BME280;29631;49.168;9.848;2023-04-08T12:51:56;97061.56;;;15.77;75.30
40502;BME280;29631;49.168;9.848;2023-04-08T12:54:22;97117.63;;;16.04;75.18
40502;BME280;29631;49.168;9.848;2023-04-08T12:56:47;97073.88;;;15.89;75.03
40502;BME280;29631;49.168;9.848;2023-04-08T12:59:13;97096.91;;;15.95;74.89
40502;BME280;29631;49.168;9.848;2023-04-08T13:01:39;97056.25;;;15.77;75.01
40502;BME280;29631;49.168;9.848;2023-04-08T13:04:05;97107.19;;;16.03;74.95
40502;BME280;29631;49.168;9.848;2023-04-08T13:06:31;97108.59;;;16.05;74.66
40502;BME280;29631;49.168;9.848;2023-04-08T13:08:57;97079.88;;;15.85;74.76
40502;BME280;29631;49.168;9.848;2023-04-08T13:11:23;97063.19;;;15.78;74.73
40502;BME280;29631;49.168;9.848;2023-04-08T13:13:48;97100.03;;;16.03;75.13